sensor_id;sensor_type;location;lat;lon;timestamp;P1;durP1;ratioP1;P2;durP2;ratioP2
13404;SDS011;6773;51.192;7.024;2022-10-14T00:01:35;31.37;;;19.37;;
13404;SDS011;6773;51.192;7.024;2022-10-14T00:04:01;33.53;;;19.73;;
13404;SDS011;6773;51.192;7.024;2022-10-14T00:06:28;29.70;;;18.43;;
13404;SDS011;6773;51.192;7.024;2022-10-14T00:08:55;31.07;;;19.60;;
13404;SDS011;6773;51.192;7.024;2022-10-14T00:11:26;34.87;;;20.37;;
13404;SDS011;6773;51.192;7.024;2022-10-14T00:13:55;33.00;;;18.53;;
13404;SDS011;6773;51.192;7.024;2022-10-14T00:16:29;32.80;;;19.17;;
13404;SDS011;6773;51.192;7.024;2022-10-14T00:18:57;30.00;;;18.33;;
13404;SDS011;6773;51.192;7.024;2022-10-14T00:21:23;34.10;;;19.90;;
13404;SDS011;6773;51.192;7.024;2022-10-14T00:23:49;33.87;;;19.10;;
13404;SDS011;6773;51.192;7.024;2022-10-14T00:26:22;32.27;;;18.30;;
13404;SDS011;6773;51.192;7.024;2022-10-14T00:28:53;35.17;;;19.03;;
13404;SDS011;6773;51.192;7.024;2022-10-14T00:31:19;37.10;;;20.43;;
13404;SDS011;6773;51.192;7.024;2022-10-14T00:33:45;36.40;;;21.27;;
13404;SDS011;6773;51.192;7.024;2022-10-14T00:36:11;34.93;;;20.47;;
13404;SDS011;6773;51.192;7.024;2022-10-14T00:38:39;36.90;;;20.27;;
13404;SDS011;6773;51.192;7.024;2022-10-14T00:41:05;35.67;;;20.30;;
13404;SDS011;6773;51.192;7.024;2022-10-14T00:43:54;36.07;;;20.40;;
13404;SDS011;6773;51.192;7.024;2022-10-14T00:46:18;36.63;;;19.50;;
13404;SDS011;6773;51.192;7.024;2022-10-14T00:48:44;38.80;;;20.90;;
13404;SDS011;6773;51.192;7.024;2022-10-14T00:51:09;36.30;;;20.80;;
13404;SDS011;6773;51.192;7.024;2022-10-14T00:53:35;39.27;;;21.57;;
13404;SDS011;6773;51.192;7.024;2022-10-14T00:56:03;42.03;;;20.53;;
13404;SDS011;6773;51.192;7.024;2022-10-14T00:58:31;41.50;;;22.70;;
13404;SDS011;6773;51.192;7.024;2022-10-14T01:00:56;37.07;;;22.20;;
13404;SDS011;6773;51.192;7.024;2022-10-14T01:03:22;46.07;;;23.87;;
13404;SDS011;6773;51.192;7.024;2022-10-14T01:05:50;44.47;;;22.47;;
13404;SDS011;6773;51.192;7.024;2022-10-14T01:08:37;40.57;;;21.80;;
13404;SDS011;6773;51.192;7.024;2022-10-14T01:11:30;38.13;;;20.80;;
13404;SDS011;6773;51.192;7.024;2022-10-14T01:16:52;37.73;;;21.50;;
13404;SDS011;6773;51.192;7.024;2022-10-14T01:22:28;38.87;;;20.47;;
13404;SDS011;6773;51.192;7.024;2022-10-14T01:25:13;36.77;;;20.93;;
13404;SDS011;6773;51.192;7.024;2022-10-14T01:30:42;39.70;;;21.30;;
13404;SDS011;6773;51.192;7.024;2022-10-14T01:36:11;41.77;;;20.80;;
13404;SDS011;6773;51.192;7.024;2022-10-14T01:41:27;42.47;;;21.00;;
13404;SDS011;6773;51.192;7.024;2022-10-14T01:43:56;39.60;;;20.03;;
13404;SDS011;6773;51.192;7.024;2022-10-14T01:46:26;37.67;;;19.93;;
13404;SDS011;6773;51.192;7.024;2022-10-14T01:48:54;36.57;;;19.33;;
13404;SDS011;6773;51.192;7.024;2022-10-14T01:51:28;39.07;;;20.43;;
13404;SDS011;6773;51.192;7.024;2022-10-14T01:54:05;35.57;;;19.37;;
13404;SDS011;6773;51.192;7.024;2022-10-14T01:56:35;36.77;;;19.87;;
13404;SDS011;6773;51.192;7.024;2022-10-14T01:59:01;37.30;;;20.70;;
13404;SDS011;6773;51.192;7.024;2022-10-14T02:01:28;36.03;;;19.40;;
13404;SDS011;6773;51.192;7.024;2022-10-14T02:03:53;37.43;;;19.10;;
13404;SDS011;6773;51.192;7.024;2022-10-14T02:06:29;43.80;;;21.10;;
13404;SDS011;6773;51.192;7.024;2022-10-14T02:12:04;33.93;;;18.57;;
13404;SDS011;6773;51.192;7.024;2022-10-14T02:17:56;32.43;;;17.00;;
13404;SDS011;6773;51.192;7.024;2022-10-14T02:20:38;37.47;;;16.83;;
13404;SDS011;6773;51.192;7.024;2022-10-14T02:23:10;30.93;;;15.83;;
13404;SDS011;6773;51.192;7.024;2022-10-14T02:25:41;32.20;;;17.37;;
13404;SDS011;6773;51.192;7.024;2022-10-14T02:28:10;30.73;;;17.13;;
13404;SDS011;6773;51.192;7.024;2022-10-14T02:30:40;34.50;;;18.13;;
13404;SDS011;6773;51.192;7.024;2022-10-14T02:33:09;29.03;;;15.93;;
13404;SDS011;6773;51.192;7.024;2022-10-14T02:35:36;36.80;;;18.03;;
13404;SDS011;6773;51.192;7.024;2022-10-14T02:38:05;31.37;;;17.30;;
13404;SDS011;6773;51.192;7.024;2022-10-14T02:43:00;32.77;;;17.03;;
13404;SDS011;6773;51.192;7.024;2022-10-14T02:45:26;36.87;;;18.77;;
13404;SDS011;6773;51.192;7.024;2022-10-14T02:47:53;32.93;;;17.13;;
13404;SDS011;6773;51.192;7.024;2022-10-14T02:50:18;31.17;;;16.00;;
13404;SDS011;6773;51.192;7.024;2022-10-14T02:52:45;30.43;;;17.40;;
13404;SDS011;6773;51.192;7.024;2022-10-14T02:55:10;28.83;;;16.13;;
13404;SDS011;6773;51.192;7.024;2022-10-14T02:57:36;29.87;;;16.17;;
13404;SDS011;6773;51.192;7.024;2022-10-14T03:00:03;25.67;;;16.33;;
13404;SDS011;6773;51.192;7.024;2022-10-14T03:02:29;33.50;;;17.30;;
13404;SDS011;6773;51.192;7.024;2022-10-14T03:04:54;26.70;;;15.20;;
13404;SDS011;6773;51.192;7.024;2022-10-14T03:07:21;30.27;;;16.50;;
13404;SDS011;6773;51.192;7.024;2022-10-14T03:09:47;29.93;;;14.83;;
13404;SDS011;6773;51.192;7.024;2022-10-14T03:12:13;23.83;;;14.43;;
13404;SDS011;6773;51.192;7.024;2022-10-14T03:14:39;28.07;;;16.43;;
13404;SDS011;6773;51.192;7.024;2022-10-14T03:17:05;26.43;;;16.30;;
13404;SDS011;6773;51.192;7.024;2022-10-14T03:19:31;27.70;;;15.83;;
13404;SDS011;6773;51.192;7.024;2022-10-14T03:21:57;26.40;;;15.87;;
13404;SDS011;6773;51.192;7.024;2022-10-14T03:24:22;25.10;;;15.73;;
13404;SDS011;6773;51.192;7.024;2022-10-14T03:26:48;23.87;;;14.23;;
13404;SDS011;6773;51.192;7.024;2022-10-14T03:29:14;22.73;;;14.43;;
13404;SDS011;6773;51.192;7.024;2022-10-14T03:31:39;24.37;;;14.87;;
13404;SDS011;6773;51.192;7.024;2022-10-14T03:34:05;22.17;;;13.77;;
13404;SDS011;6773;51.192;7.024;2022-10-14T03:36:30;21.53;;;13.67;;
13404;SDS011;6773;51.192;7.024;2022-10-14T03:38:56;20.13;;;13.20;;
13404;SDS011;6773;51.192;7.024;2022-10-14T03:41:21;22.93;;;13.50;;
13404;SDS011;6773;51.192;7.024;2022-10-14T03:43:47;23.27;;;14.30;;
13404;SDS011;6773;51.192;7.024;2022-10-14T03:46:13;23.77;;;14.10;;
13404;SDS011;6773;51.192;7.024;2022-10-14T03:48:38;25.97;;;14.73;;
13404;SDS011;6773;51.192;7.024;2022-10-14T03:51:04;22.17;;;14.80;;
13404;SDS011;6773;51.192;7.024;2022-10-14T03:53:30;22.67;;;14.30;;
13404;SDS011;6773;51.192;7.024;2022-10-14T03:55:56;23.50;;;14.23;;
13404;SDS011;6773;51.192;7.024;2022-10-14T03:58:22;24.23;;;13.90;;
13404;SDS011;6773;51.192;7.024;2022-10-14T04:00:48;23.60;;;13.90;;
13404;SDS011;6773;51.192;7.024;2022-10-14T04:03:13;26.83;;;14.50;;
13404;SDS011;6773;51.192;7.024;2022-10-14T04:05:39;21.07;;;13.53;;
13404;SDS011;6773;51.192;7.024;2022-10-14T04:08:05;24.30;;;13.53;;
13404;SDS011;6773;51.192;7.024;2022-10-14T04:10:31;22.70;;;13.63;;
13404;SDS011;6773;51.192;7.024;2022-10-14T04:12:57;16.90;;;11.90;;
13404;SDS011;6773;51.192;7.024;2022-10-14T04:15:23;19.53;;;12.63;;
13404;SDS011;6773;51.192;7.024;2022-10-14T04:17:49;17.97;;;11.53;;
13404;SDS011;6773;51.192;7.024;2022-10-14T04:20:15;23.33;;;12.63;;
13404;SDS011;6773;51.192;7.024;2022-10-14T04:22:41;22.03;;;12.23;;
13404;SDS011;6773;51.192;7.024;2022-10-14T04:25:07;21.80;;;13.57;;
13404;SDS011;6773;51.192;7.024;2022-10-14T04:27:33;18.63;;;11.93;;
13404;SDS011;6773;51.192;7.024;2022-10-14T04:29:59;20.90;;;12.33;;
13404;SDS011;6773;51.192;7.024;2022-10-14T04:32:24;20.27;;;12.20;;
13404;SDS011;6773;51.192;7.024;2022-10-14T04:34:50;18.40;;;12.40;;
13404;SDS011;6773;51.192;7.024;2022-10-14T04:37:15;18.33;;;12.07;;
13404;SDS011;6773;51.192;7.024;2022-10-14T04:39:41;24.00;;;12.13;;
13404;SDS011;6773;51.192;7.024;2022-10-14T04:42:07;22.63;;;12.00;;
13404;SDS011;6773;51.192;7.024;2022-10-14T04:44:32;20.67;;;12.10;;
13404;SDS011;6773;51.192;7.024;2022-10-14T04:46:58;17.53;;;11.83;;
13404;SDS011;6773;51.192;7.024;2022-10-14T04:49:23;19.17;;;12.23;;
13404;SDS011;6773;51.192;7.024;2022-10-14T04:51:49;16.57;;;11.60;;
13404;SDS011;6773;51.192;7.024;2022-10-14T04:54:15;17.07;;;11.30;;
13404;SDS011;6773;51.192;7.024;2022-10-14T04:56:40;17.63;;;11.97;;
13404;SDS011;6773;51.192;7.024;2022-10-14T04:59:06;23.63;;;12.17;;
13404;SDS011;6773;51.192;7.024;2022-10-14T05:01:31;19.77;;;12.20;;
13404;SDS011;6773;51.192;7.024;2022-10-14T05:03:57;17.77;;;10.93;;
13404;SDS011;6773;51.192;7.024;2022-10-14T05:06:23;21.10;;;12.47;;
13404;SDS011;6773;51.192;7.024;2022-10-14T05:08:48;20.83;;;12.37;;
13404;SDS011;6773;51.192;7.024;2022-10-14T05:11:14;16.53;;;11.60;;
13404;SDS011;6773;51.192;7.024;2022-10-14T05:13:40;16.63;;;11.70;;
13404;SDS011;6773;51.192;7.024;2022-10-14T05:16:05;20.70;;;11.83;;
13404;SDS011;6773;51.192;7.024;2022-10-14T05:18:31;18.60;;;11.47;;
13404;SDS011;6773;51.192;7.024;2022-10-14T05:20:57;17.13;;;11.50;;
13404;SDS011;6773;51.192;7.024;2022-10-14T05:23:24;17.53;;;12.03;;
13404;SDS011;6773;51.192;7.024;2022-10-14T05:25:50;22.07;;;12.23;;
13404;SDS011;6773;51.192;7.024;2022-10-14T05:28:16;20.67;;;12.50;;
13404;SDS011;6773;51.192;7.024;2022-10-14T05:30:42;19.10;;;11.93;;
13404;SDS011;6773;51.192;7.024;2022-10-14T05:33:08;16.23;;;11.40;;
13404;SDS011;6773;51.192;7.024;2022-10-14T05:35:34;16.77;;;11.17;;
13404;SDS011;6773;51.192;7.024;2022-10-14T05:38:00;17.73;;;10.90;;
13404;SDS011;6773;51.192;7.024;2022-10-14T05:40:25;16.53;;;10.70;;
13404;SDS011;6773;51.192;7.024;2022-10-14T05:42:51;15.23;;;10.27;;
13404;SDS011;6773;51.192;7.024;2022-10-14T05:45:16;17.47;;;11.00;;
13404;SDS011;6773;51.192;7.024;2022-10-14T05:47:42;13.40;;;9.70;;
13404;SDS011;6773;51.192;7.024;2022-10-14T05:50:08;17.07;;;10.27;;
13404;SDS011;6773;51.192;7.024;2022-10-14T05:52:35;18.40;;;10.97;;
13404;SDS011;6773;51.192;7.024;2022-10-14T05:55:01;16.27;;;10.40;;
13404;SDS011;6773;51.192;7.024;2022-10-14T05:57:27;16.03;;;10.13;;
13404;SDS011;6773;51.192;7.024;2022-10-14T05:59:53;15.53;;;9.87;;
13404;SDS011;6773;51.192;7.024;2022-10-14T06:02:19;11.80;;;9.07;;
13404;SDS011;6773;51.192;7.024;2022-10-14T06:04:44;13.60;;;9.40;;
13404;SDS011;6773;51.192;7.024;2022-10-14T06:07:10;12.33;;;9.20;;
13404;SDS011;6773;51.192;7.024;2022-10-14T06:09:36;15.43;;;9.13;;
13404;SDS011;6773;51.192;7.024;2022-10-14T06:12:02;14.10;;;9.80;;
13404;SDS011;6773;51.192;7.024;2022-10-14T06:14:28;11.67;;;8.53;;
13404;SDS011;6773;51.192;7.024;2022-10-14T06:16:54;12.63;;;8.57;;
13404;SDS011;6773;51.192;7.024;2022-10-14T06:19:20;15.57;;;9.40;;
13404;SDS011;6773;51.192;7.024;2022-10-14T06:21:46;14.07;;;9.43;;
13404;SDS011;6773;51.192;7.024;2022-10-14T06:24:12;10.07;;;8.43;;
13404;SDS011;6773;51.192;7.024;2022-10-14T06:26:37;11.77;;;8.33;;
13404;SDS011;6773;51.192;7.024;2022-10-14T06:29:03;10.27;;;7.93;;
13404;SDS011;6773;51.192;7.024;2022-10-14T06:31:29;9.33;;;7.67;;
13404;SDS011;6773;51.192;7.024;2022-10-14T06:33:54;11.20;;;7.10;;
13404;SDS011;6773;51.192;7.024;2022-10-14T06:36:20;11.37;;;8.27;;
13404;SDS011;6773;51.192;7.024;2022-10-14T06:38:46;11.33;;;7.83;;
13404;SDS011;6773;51.192;7.024;2022-10-14T06:41:12;9.93;;;7.57;;
13404;SDS011;6773;51.192;7.024;2022-10-14T06:43:37;8.47;;;6.90;;
13404;SDS011;6773;51.192;7.024;2022-10-14T06:46:03;8.43;;;6.23;;
13404;SDS011;6773;51.192;7.024;2022-10-14T06:48:29;8.03;;;6.50;;
13404;SDS011;6773;51.192;7.024;2022-10-14T06:50:57;8.63;;;6.97;;
13404;SDS011;6773;51.192;7.024;2022-10-14T06:53:26;10.27;;;6.63;;
13404;SDS011;6773;51.192;7.024;2022-10-14T06:55:56;9.93;;;6.60;;
13404;SDS011;6773;51.192;7.024;2022-10-14T06:58:28;7.47;;;5.60;;
13404;SDS011;6773;51.192;7.024;2022-10-14T07:00:54;8.57;;;6.00;;
13404;SDS011;6773;51.192;7.024;2022-10-14T07:03:19;9.70;;;6.80;;
13404;SDS011;6773;51.192;7.024;2022-10-14T07:05:45;8.63;;;6.13;;
13404;SDS011;6773;51.192;7.024;2022-10-14T07:08:11;10.07;;;6.80;;
13404;SDS011;6773;51.192;7.024;2022-10-14T07:10:37;8.07;;;6.60;;
13404;SDS011;6773;51.192;7.024;2022-10-14T07:13:02;8.90;;;5.80;;
13404;SDS011;6773;51.192;7.024;2022-10-14T07:15:28;7.27;;;6.00;;
13404;SDS011;6773;51.192;7.024;2022-10-14T07:17:53;8.03;;;6.27;;
13404;SDS011;6773;51.192;7.024;2022-10-14T07:20:19;8.37;;;6.87;;
13404;SDS011;6773;51.192;7.024;2022-10-14T07:22:45;7.40;;;5.77;;
13404;SDS011;6773;51.192;7.024;2022-10-14T07:25:11;9.17;;;6.43;;
13404;SDS011;6773;51.192;7.024;2022-10-14T07:27:36;6.93;;;6.00;;
13404;SDS011;6773;51.192;7.024;2022-10-14T07:30:02;8.90;;;6.03;;
13404;SDS011;6773;51.192;7.024;2022-10-14T07:32:29;7.90;;;6.47;;
13404;SDS011;6773;51.192;7.024;2022-10-14T07:34:55;7.13;;;5.87;;
13404;SDS011;6773;51.192;7.024;2022-10-14T07:37:20;7.77;;;5.77;;
13404;SDS011;6773;51.192;7.024;2022-10-14T07:39:46;7.60;;;5.50;;
13404;SDS011;6773;51.192;7.024;2022-10-14T07:42:12;7.93;;;5.77;;
13404;SDS011;6773;51.192;7.024;2022-10-14T07:44:37;7.93;;;5.67;;
13404;SDS011;6773;51.192;7.024;2022-10-14T07:47:04;8.10;;;5.73;;
13404;SDS011;6773;51.192;7.024;2022-10-14T07:49:30;8.03;;;5.70;;
13404;SDS011;6773;51.192;7.024;2022-10-14T07:51:56;11.00;;;5.67;;
13404;SDS011;6773;51.192;7.024;2022-10-14T07:54:22;7.30;;;5.47;;
13404;SDS011;6773;51.192;7.024;2022-10-14T07:56:49;7.53;;;5.50;;
13404;SDS011;6773;51.192;7.024;2022-10-14T07:59:17;7.50;;;5.87;;
13404;SDS011;6773;51.192;7.024;2022-10-14T08:01:46;9.13;;;6.17;;
13404;SDS011;6773;51.192;7.024;2022-10-14T08:04:13;7.60;;;6.10;;
13404;SDS011;6773;51.192;7.024;2022-10-14T08:06:39;7.73;;;6.00;;
13404;SDS011;6773;51.192;7.024;2022-10-14T08:09:06;8.30;;;5.60;;
13404;SDS011;6773;51.192;7.024;2022-10-14T08:11:32;6.60;;;5.90;;
13404;SDS011;6773;51.192;7.024;2022-10-14T08:13:58;9.87;;;5.67;;
13404;SDS011;6773;51.192;7.024;2022-10-14T08:16:25;9.40;;;6.70;;
13404;SDS011;6773;51.192;7.024;2022-10-14T08:18:54;10.10;;;5.67;;
13404;SDS011;6773;51.192;7.024;2022-10-14T08:21:21;7.87;;;5.60;;
13404;SDS011;6773;51.192;7.024;2022-10-14T08:23:47;6.90;;;5.73;;
13404;SDS011;6773;51.192;7.024;2022-10-14T08:26:14;7.13;;;5.47;;
13404;SDS011;6773;51.192;7.024;2022-10-14T08:28:45;7.50;;;6.03;;
13404;SDS011;6773;51.192;7.024;2022-10-14T08:31:11;9.70;;;5.67;;
13404;SDS011;6773;51.192;7.024;2022-10-14T08:33:36;8.47;;;5.90;;
13404;SDS011;6773;51.192;7.024;2022-10-14T08:36:02;6.27;;;5.63;;
13404;SDS011;6773;51.192;7.024;2022-10-14T08:38:28;7.90;;;5.90;;
13404;SDS011;6773;51.192;7.024;2022-10-14T08:41:01;8.97;;;6.57;;
13404;SDS011;6773;51.192;7.024;2022-10-14T08:49:01;8.40;;;5.87;;
13404;SDS011;6773;51.192;7.024;2022-10-14T08:51:31;6.47;;;5.70;;
13404;SDS011;6773;51.192;7.024;2022-10-14T08:53:59;8.47;;;6.33;;
13404;SDS011;6773;51.192;7.024;2022-10-14T08:56:33;6.87;;;5.63;;
13404;SDS011;6773;51.192;7.024;2022-10-14T08:59:04;8.10;;;5.43;;
13404;SDS011;6773;51.192;7.024;2022-10-14T09:01:38;6.30;;;5.27;;
13404;SDS011;6773;51.192;7.024;2022-10-14T09:04:12;6.77;;;5.10;;
13404;SDS011;6773;51.192;7.024;2022-10-14T09:06:40;6.27;;;4.63;;
13404;SDS011;6773;51.192;7.024;2022-10-14T09:09:11;6.33;;;5.37;;
13404;SDS011;6773;51.192;7.024;2022-10-14T09:12:15;5.17;;;4.67;;
13404;SDS011;6773;51.192;7.024;2022-10-14T09:14:45;5.57;;;4.97;;
13404;SDS011;6773;51.192;7.024;2022-10-14T09:17:16;6.43;;;5.03;;
13404;SDS011;6773;51.192;7.024;2022-10-14T09:20:03;5.93;;;4.77;;
13404;SDS011;6773;51.192;7.024;2022-10-14T09:22:39;5.47;;;4.60;;
13404;SDS011;6773;51.192;7.024;2022-10-14T09:25:08;5.53;;;4.50;;
13404;SDS011;6773;51.192;7.024;2022-10-14T09:27:38;6.43;;;5.50;;
13404;SDS011;6773;51.192;7.024;2022-10-14T09:30:04;5.37;;;4.37;;
13404;SDS011;6773;51.192;7.024;2022-10-14T09:32:41;7.87;;;5.10;;
13404;SDS011;6773;51.192;7.024;2022-10-14T09:35:13;5.47;;;4.50;;
13404;SDS011;6773;51.192;7.024;2022-10-14T09:37:52;6.30;;;4.93;;
13404;SDS011;6773;51.192;7.024;2022-10-14T09:40:31;5.70;;;5.03;;
13404;SDS011;6773;51.192;7.024;2022-10-14T09:43:01;5.50;;;4.77;;
13404;SDS011;6773;51.192;7.024;2022-10-14T09:51:02;4.83;;;4.30;;
13404;SDS011;6773;51.192;7.024;2022-10-14T09:53:37;6.23;;;5.03;;
13404;SDS011;6773;51.192;7.024;2022-10-14T09:56:09;5.93;;;4.57;;
13404;SDS011;6773;51.192;7.024;2022-10-14T10:01:20;5.27;;;4.20;;
13404;SDS011;6773;51.192;7.024;2022-10-14T10:03:48;5.60;;;4.90;;
13404;SDS011;6773;51.192;7.024;2022-10-14T10:06:16;5.37;;;4.20;;
13404;SDS011;6773;51.192;7.024;2022-10-14T10:11:26;4.87;;;4.13;;
13404;SDS011;6773;51.192;7.024;2022-10-14T10:24:44;7.63;;;5.10;;
13404;SDS011;6773;51.192;7.024;2022-10-14T10:27:22;6.33;;;4.80;;
13404;SDS011;6773;51.192;7.024;2022-10-14T10:29:52;5.73;;;4.70;;
13404;SDS011;6773;51.192;7.024;2022-10-14T10:37:29;7.17;;;4.93;;
13404;SDS011;6773;51.192;7.024;2022-10-14T10:43:32;9.70;;;6.20;;
13404;SDS011;6773;51.192;7.024;2022-10-14T10:45:42;7.23;;;5.17;;
13404;SDS011;6773;51.192;7.024;2022-10-14T10:48:28;6.73;;;5.37;;
13404;SDS011;6773;51.192;7.024;2022-10-14T10:51:15;7.40;;;5.90;;
13404;SDS011;6773;51.192;7.024;2022-10-14T10:54:03;7.93;;;5.77;;
13404;SDS011;6773;51.192;7.024;2022-10-14T10:56:36;9.63;;;6.63;;
13404;SDS011;6773;51.192;7.024;2022-10-14T11:04:47;9.47;;;6.60;;
13404;SDS011;6773;51.192;7.024;2022-10-14T11:07:30;10.10;;;6.80;;
13404;SDS011;6773;51.192;7.024;2022-10-14T11:10:39;9.57;;;7.37;;
13404;SDS011;6773;51.192;7.024;2022-10-14T11:13:40;10.20;;;7.63;;
13404;SDS011;6773;51.192;7.024;2022-10-14T11:19:05;10.60;;;7.43;;
13404;SDS011;6773;51.192;7.024;2022-10-14T11:22:02;12.53;;;8.00;;
13404;SDS011;6773;51.192;7.024;2022-10-14T11:27:49;10.63;;;8.00;;
13404;SDS011;6773;51.192;7.024;2022-10-14T11:33:17;11.57;;;8.13;;
13404;SDS011;6773;51.192;7.024;2022-10-14T11:35:53;11.83;;;7.30;;
13404;SDS011;6773;51.192;7.024;2022-10-14T11:46:28;11.53;;;8.20;;
13404;SDS011;6773;51.192;7.024;2022-10-14T11:49:18;14.50;;;8.20;;
13404;SDS011;6773;51.192;7.024;2022-10-14T11:54:18;12.67;;;8.77;;
13404;SDS011;6773;51.192;7.024;2022-10-14T11:57:01;13.47;;;8.27;;
13404;SDS011;6773;51.192;7.024;2022-10-14T11:59:55;12.17;;;8.17;;
13404;SDS011;6773;51.192;7.024;2022-10-14T12:02:43;14.10;;;9.17;;
13404;SDS011;6773;51.192;7.024;2022-10-14T12:08:32;12.77;;;8.50;;
13404;SDS011;6773;51.192;7.024;2022-10-14T12:13:56;12.27;;;7.70;;
13404;SDS011;6773;51.192;7.024;2022-10-14T12:16:46;12.60;;;9.20;;
13404;SDS011;6773;51.192;7.024;2022-10-14T12:19:13;13.33;;;7.93;;
13404;SDS011;6773;51.192;7.024;2022-10-14T12:21:47;13.97;;;9.80;;
13404;SDS011;6773;51.192;7.024;2022-10-14T12:24:18;15.43;;;9.13;;
13404;SDS011;6773;51.192;7.024;2022-10-14T12:26:52;14.30;;;9.33;;
13404;SDS011;6773;51.192;7.024;2022-10-14T12:29:27;14.47;;;9.50;;
13404;SDS011;6773;51.192;7.024;2022-10-14T12:34:37;12.80;;;9.63;;
13404;SDS011;6773;51.192;7.024;2022-10-14T12:39:52;15.60;;;10.03;;
13404;SDS011;6773;51.192;7.024;2022-10-14T12:42:18;13.90;;;8.60;;
13404;SDS011;6773;51.192;7.024;2022-10-14T12:44:47;13.70;;;10.17;;
13404;SDS011;6773;51.192;7.024;2022-10-14T12:47:24;14.23;;;9.83;;
13404;SDS011;6773;51.192;7.024;2022-10-14T12:49:56;14.47;;;9.10;;
13404;SDS011;6773;51.192;7.024;2022-10-14T12:52:30;16.93;;;10.20;;
13404;SDS011;6773;51.192;7.024;2022-10-14T12:54:59;17.17;;;10.37;;
13404;SDS011;6773;51.192;7.024;2022-10-14T12:57:32;16.50;;;10.90;;
13404;SDS011;6773;51.192;7.024;2022-10-14T13:00:02;17.40;;;10.40;;
13404;SDS011;6773;51.192;7.024;2022-10-14T13:02:32;18.03;;;10.23;;
13404;SDS011;6773;51.192;7.024;2022-10-14T13:05:03;14.20;;;10.20;;
13404;SDS011;6773;51.192;7.024;2022-10-14T13:07:40;15.07;;;10.33;;
13404;SDS011;6773;51.192;7.024;2022-10-14T13:27:17;16.30;;;10.23;;
13404;SDS011;6773;51.192;7.024;2022-10-14T13:37:28;12.47;;;8.57;;
13404;SDS011;6773;51.192;7.024;2022-10-14T13:42:55;13.40;;;9.27;;
13404;SDS011;6773;51.192;7.024;2022-10-14T13:45:42;18.20;;;9.47;;
13404;SDS011;6773;51.192;7.024;2022-10-14T13:48:19;13.90;;;8.67;;
13404;SDS011;6773;51.192;7.024;2022-10-14T13:50:53;14.33;;;8.23;;
13404;SDS011;6773;51.192;7.024;2022-10-14T13:53:47;13.73;;;8.90;;
13404;SDS011;6773;51.192;7.024;2022-10-14T13:56:25;11.63;;;8.77;;
13404;SDS011;6773;51.192;7.024;2022-10-14T13:58:52;13.73;;;8.80;;
13404;SDS011;6773;51.192;7.024;2022-10-14T14:01:19;11.37;;;7.63;;
13404;SDS011;6773;51.192;7.024;2022-10-14T14:03:50;10.83;;;8.53;;
13404;SDS011;6773;51.192;7.024;2022-10-14T14:06:19;12.00;;;7.50;;
13404;SDS011;6773;51.192;7.024;2022-10-14T14:08:48;11.60;;;8.07;;
13404;SDS011;6773;51.192;7.024;2022-10-14T14:11:40;12.23;;;7.93;;
13404;SDS011;6773;51.192;7.024;2022-10-14T14:16:55;10.47;;;6.80;;
13404;SDS011;6773;51.192;7.024;2022-10-14T14:24:47;10.80;;;8.23;;
13404;SDS011;6773;51.192;7.024;2022-10-14T14:27:22;12.27;;;8.63;;
13404;SDS011;6773;51.192;7.024;2022-10-14T14:29:51;9.97;;;7.70;;
13404;SDS011;6773;51.192;7.024;2022-10-14T14:32:19;13.17;;;8.40;;
13404;SDS011;6773;51.192;7.024;2022-10-14T14:34:47;11.87;;;8.40;;
13404;SDS011;6773;51.192;7.024;2022-10-14T14:37:36;9.87;;;7.97;;
13404;SDS011;6773;51.192;7.024;2022-10-14T14:40:02;11.93;;;8.63;;
13404;SDS011;6773;51.192;7.024;2022-10-14T14:42:38;9.90;;;7.77;;
13404;SDS011;6773;51.192;7.024;2022-10-14T14:45:06;12.10;;;8.13;;
13404;SDS011;6773;51.192;7.024;2022-10-14T14:47:45;12.17;;;7.80;;
13404;SDS011;6773;51.192;7.024;2022-10-14T14:50:14;11.67;;;8.53;;
13404;SDS011;6773;51.192;7.024;2022-10-14T14:52:43;11.53;;;8.47;;
13404;SDS011;6773;51.192;7.024;2022-10-14T14:58:19;10.07;;;8.73;;
13404;SDS011;6773;51.192;7.024;2022-10-14T15:00:52;13.17;;;8.97;;
13404;SDS011;6773;51.192;7.024;2022-10-14T15:03:19;13.47;;;9.40;;
13404;SDS011;6773;51.192;7.024;2022-10-14T15:05:56;13.37;;;11.20;;
13404;SDS011;6773;51.192;7.024;2022-10-14T15:08:28;14.17;;;11.27;;
13404;SDS011;6773;51.192;7.024;2022-10-14T15:10:56;13.17;;;9.73;;
13404;SDS011;6773;51.192;7.024;2022-10-14T15:13:24;15.87;;;10.83;;
13404;SDS011;6773;51.192;7.024;2022-10-14T15:15:51;14.90;;;10.57;;
13404;SDS011;6773;51.192;7.024;2022-10-14T15:18:24;14.03;;;11.60;;
13404;SDS011;6773;51.192;7.024;2022-10-14T15:26:23;14.70;;;10.83;;
13404;SDS011;6773;51.192;7.024;2022-10-14T15:31:40;14.90;;;10.63;;
13404;SDS011;6773;51.192;7.024;2022-10-14T15:34:13;19.17;;;12.43;;
13404;SDS011;6773;51.192;7.024;2022-10-14T15:36:44;19.53;;;11.90;;
13404;SDS011;6773;51.192;7.024;2022-10-14T15:39:12;21.20;;;12.87;;
13404;SDS011;6773;51.192;7.024;2022-10-14T15:41:39;17.83;;;12.67;;
13404;SDS011;6773;51.192;7.024;2022-10-14T15:44:05;19.60;;;10.47;;
13404;SDS011;6773;51.192;7.024;2022-10-14T15:46:33;18.03;;;11.50;;
13404;SDS011;6773;51.192;7.024;2022-10-14T15:49:24;18.23;;;10.23;;
13404;SDS011;6773;51.192;7.024;2022-10-14T15:51:52;14.40;;;9.93;;
13404;SDS011;6773;51.192;7.024;2022-10-14T15:54:18;15.13;;;9.87;;
13404;SDS011;6773;51.192;7.024;2022-10-14T15:56:43;19.33;;;10.83;;
13404;SDS011;6773;51.192;7.024;2022-10-14T15:59:12;14.50;;;10.00;;
13404;SDS011;6773;51.192;7.024;2022-10-14T16:01:40;16.80;;;9.93;;
13404;SDS011;6773;51.192;7.024;2022-10-14T16:04:12;15.43;;;10.63;;
13404;SDS011;6773;51.192;7.024;2022-10-14T16:06:43;17.13;;;10.17;;
13404;SDS011;6773;51.192;7.024;2022-10-14T16:09:10;13.30;;;9.20;;
13404;SDS011;6773;51.192;7.024;2022-10-14T16:11:35;16.17;;;11.50;;
13404;SDS011;6773;51.192;7.024;2022-10-14T16:14:01;15.40;;;9.60;;
13404;SDS011;6773;51.192;7.024;2022-10-14T16:16:30;13.87;;;9.63;;
13404;SDS011;6773;51.192;7.024;2022-10-14T16:19:00;15.13;;;10.90;;
13404;SDS011;6773;51.192;7.024;2022-10-14T16:21:29;16.33;;;10.67;;
13404;SDS011;6773;51.192;7.024;2022-10-14T16:23:54;16.70;;;10.57;;
13404;SDS011;6773;51.192;7.024;2022-10-14T16:26:22;18.93;;;12.87;;
13404;SDS011;6773;51.192;7.024;2022-10-14T16:28:48;19.17;;;13.07;;
13404;SDS011;6773;51.192;7.024;2022-10-14T16:31:14;18.37;;;12.33;;
13404;SDS011;6773;51.192;7.024;2022-10-14T16:33:40;12.70;;;9.87;;
13404;SDS011;6773;51.192;7.024;2022-10-14T16:36:06;14.43;;;10.20;;
13404;SDS011;6773;51.192;7.024;2022-10-14T16:38:32;21.93;;;17.00;;
13404;SDS011;6773;51.192;7.024;2022-10-14T16:40:59;17.80;;;11.00;;
13404;SDS011;6773;51.192;7.024;2022-10-14T16:43:26;13.97;;;9.97;;
13404;SDS011;6773;51.192;7.024;2022-10-14T16:45:55;14.63;;;9.63;;
13404;SDS011;6773;51.192;7.024;2022-10-14T16:48:22;15.07;;;10.17;;
13404;SDS011;6773;51.192;7.024;2022-10-14T16:50:48;16.60;;;11.17;;
13404;SDS011;6773;51.192;7.024;2022-10-14T16:53:14;12.83;;;9.43;;
13404;SDS011;6773;51.192;7.024;2022-10-14T16:55:58;11.60;;;8.83;;
13404;SDS011;6773;51.192;7.024;2022-10-14T16:58:24;18.80;;;11.20;;
13404;SDS011;6773;51.192;7.024;2022-10-14T17:00:50;16.23;;;12.07;;
13404;SDS011;6773;51.192;7.024;2022-10-14T17:03:15;14.07;;;11.37;;
13404;SDS011;6773;51.192;7.024;2022-10-14T17:05:41;17.33;;;10.97;;
13404;SDS011;6773;51.192;7.024;2022-10-14T17:08:07;22.77;;;15.10;;
13404;SDS011;6773;51.192;7.024;2022-10-14T17:10:32;13.53;;;9.67;;
13404;SDS011;6773;51.192;7.024;2022-10-14T17:12:58;17.40;;;11.83;;
13404;SDS011;6773;51.192;7.024;2022-10-14T17:15:24;16.50;;;11.83;;
13404;SDS011;6773;51.192;7.024;2022-10-14T17:17:51;19.60;;;12.63;;
13404;SDS011;6773;51.192;7.024;2022-10-14T17:20:17;18.73;;;12.17;;